sensor_id;sensor_type;location;lat;lon;timestamp;pressure;altitude;pressure_sealevel;temperature;humidity
54512;BME280;40419;47.438;19.026;2023-05-12T00:01:44;99905.75;;;10.76;100.00
54512;BME280;40419;47.438;19.026;2023-05-12T00:04:11;99910.38;;;10.89;100.00
54512;BME280;40419;47.438;19.026;2023-05-12T00:06:37;99898.72;;;10.89;100.00
54512;BME280;40419;47.438;19.026;2023-05-12T00:09:05;99895.34;;;10.87;100.00
54512;BME280;40419;47.438;19.026;2023-05-12T00:11:30;99906.19;;;10.80;100.00
54512;BME280;40419;47.438;19.026;2023-05-12T00:14:00;99897.25;;;10.86;100.00
54512;BME280;40419;47.438;19.026;2023-05-12T00:16:28;99901.63;;;10.94;100.00
54512;BME280;40419;47.438;19.026;2023-05-12T00:18:54;99891.00;;;10.92;100.00
54512;BME280;40419;47.438;19.026;2023-05-12T00:21:22;99888.50;;;10.91;100.00
54512;BME280;40419;47.438;19.026;2023-05-12T00:23:48;99889.53;;;10.83;100.00
54512;BME280;40419;47.438;19.026;2023-05-12T00:26:17;99894.75;;;10.85;100.00
54512;BME280;40419;47.438;19.026;2023-05-12T00:28:45;99890.59;;;10.95;100.00
54512;BME280;40419;47.438;19.026;2023-05-12T00:31:14;99890.59;;;10.89;100.00
54512;BME280;40419;47.438;19.026;2023-05-12T00:33:44;99884.13;;;10.90;100.00
54512;BME280;40419;47.438;19.026;2023-05-12T00:36:10;99887.06;;;11.02;100.00
54512;BME280;40419;47.438;19.026;2023-05-12T00:38:43;99885.59;;;10.99;100.00
54512;BME280;40419;47.438;19.026;2023-05-12T00:41:10;99880.16;;;10.86;100.00
54512;BME280;40419;47.438;19.026;2023-05-12T00:43:38;99887.06;;;10.95;100.00
54512;BME280;40419;47.438;19.026;2023-05-12T00:46:07;99878.09;;;10.88;100.00
54512;BME280;40419;47.438;19.026;2023-05-12T00:48:40;99880.38;;;10.84;100.00
54512;BME280;40419;47.438;19.026;2023-05-12T00:51:06;99885.78;;;10.84;100.00
54512;BME280;40419;47.438;19.026;2023-05-12T00:53:37;99887.19;;;10.67;100.00
54512;BME280;40419;47.438;19.026;2023-05-12T00:56:05;99887.47;;;10.92;100.00
54512;BME280;40419;47.438;19.026;2023-05-12T00:58:33;99876.59;;;10.78;100.00
54512;BME280;40419;47.438;19.026;2023-05-12T01:01:04;99881.56;;;10.75;100.00
54512;BME280;40419;47.438;19.026;2023-05-12T01:03:34;99881.19;;;10.78;100.00
54512;BME280;40419;47.438;19.026;2023-05-12T01:08:30;99876.19;;;10.81;100.00
54512;BME280;40419;47.438;19.026;2023-05-12T01:11:02;99875.06;;;10.62;100.00
54512;BME280;40419;47.438;19.026;2023-05-12T01:13:28;99868.88;;;10.75;100.00
54512;BME280;40419;47.438;19.026;2023-05-12T01:15:55;99880.69;;;10.61;100.00
54512;BME280;40419;47.438;19.026;2023-05-12T01:18:28;99880.06;;;10.59;100.00
54512;BME280;40419;47.438;19.026;2023-05-12T01:20:56;99871.56;;;10.69;100.00
54512;BME280;40419;47.438;19.026;2023-05-12T01:23:26;99884.69;;;10.65;100.00
54512;BME280;40419;47.438;19.026;2023-05-12T01:26:03;99890.09;;;10.72;100.00
54512;BME280;40419;47.438;19.026;2023-05-12T01:28:34;99884.88;;;10.70;100.00
54512;BME280;40419;47.438;19.026;2023-05-12T01:31:00;99879.88;;;10.60;100.00
54512;BME280;40419;47.438;19.026;2023-05-12T01:33:27;99887.84;;;10.75;100.00
54512;BME280;40419;47.438;19.026;2023-05-12T01:35:55;99886.19;;;10.81;100.00
54512;BME280;40419;47.438;19.026;2023-05-12T01:38:23;99887.44;;;10.78;100.00
54512;BME280;40419;47.438;19.026;2023-05-12T01:40:49;99887.22;;;10.80;100.00
54512;BME280;40419;47.438;19.026;2023-05-12T01:43:18;99888.91;;;10.88;100.00
54512;BME280;40419;47.438;19.026;2023-05-12T01:45:46;99888.66;;;10.76;100.00
54512;BME280;40419;47.438;19.026;2023-05-12T01:48:12;99894.69;;;10.71;100.00
54512;BME280;40419;47.438;19.026;2023-05-12T01:50:40;99888.28;;;10.86;100.00
54512;BME280;40419;47.438;19.026;2023-05-12T01:53:11;99903.72;;;10.98;100.00
54512;BME280;40419;47.438;19.026;2023-05-12T01:55:37;99893.31;;;10.89;100.00
54512;BME280;40419;47.438;19.026;2023-05-12T01:58:05;99905.94;;;10.75;100.00
54512;BME280;40419;47.438;19.026;2023-05-12T02:00:33;99902.00;;;10.77;100.00
54512;BME280;40419;47.438;19.026;2023-05-12T02:03:03;99902.44;;;10.81;100.00
54512;BME280;40419;47.438;19.026;2023-05-12T02:05:33;99903.22;;;10.75;100.00
54512;BME280;40419;47.438;19.026;2023-05-12T02:08:00;99897.69;;;11.03;100.00
54512;BME280;40419;47.438;19.026;2023-05-12T02:10:28;99904.09;;;10.82;100.00
54512;BME280;40419;47.438;19.026;2023-05-12T02:12:53;99908.03;;;10.73;100.00
54512;BME280;40419;47.438;19.026;2023-05-12T02:15:21;99901.78;;;10.72;100.00
54512;BME280;40419;47.438;19.026;2023-05-12T02:17:51;99896.63;;;10.84;100.00
54512;BME280;40419;47.438;19.026;2023-05-12T02:20:19;99892.44;;;10.88;100.00
54512;BME280;40419;47.438;19.026;2023-05-12T02:22:45;99896.22;;;10.94;100.00
54512;BME280;40419;47.438;19.026;2023-05-12T02:25:10;99899.13;;;10.86;100.00
54512;BME280;40419;47.438;19.026;2023-05-12T02:27:38;99912.41;;;10.74;100.00
54512;BME280;40419;47.438;19.026;2023-05-12T02:30:05;99914.91;;;10.75;100.00
54512;BME280;40419;47.438;19.026;2023-05-12T02:32:34;99911.34;;;10.75;100.00
54512;BME280;40419;47.438;19.026;2023-05-12T02:35:05;99911.56;;;10.73;100.00
54512;BME280;40419;47.438;19.026;2023-05-12T02:37:34;99900.94;;;10.72;100.00
54512;BME280;40419;47.438;19.026;2023-05-12T02:40:03;99909.84;;;10.59;100.00
54512;BME280;40419;47.438;19.026;2023-05-12T02:42:31;99905.94;;;10.68;100.00
54512;BME280;40419;47.438;19.026;2023-05-12T02:44:59;99913.69;;;10.85;100.00
54512;BME280;40419;47.438;19.026;2023-05-12T02:47:25;99904.22;;;10.54;100.00
54512;BME280;40419;47.438;19.026;2023-05-12T02:49:54;99900.72;;;10.60;100.00
54512;BME280;40419;47.438;19.026;2023-05-12T02:52:21;99908.44;;;10.70;100.00
54512;BME280;40419;47.438;19.026;2023-05-12T02:54:49;99903.63;;;10.72;100.00
54512;BME280;40419;47.438;19.026;2023-05-12T02:57:14;99902.41;;;10.68;100.00
54512;BME280;40419;47.438;19.026;2023-05-12T02:59:42;99905.47;;;10.58;100.00
54512;BME280;40419;47.438;19.026;2023-05-12T03:02:10;99911.28;;;10.55;100.00
54512;BME280;40419;47.438;19.026;2023-05-12T03:04:38;99911.94;;;10.57;100.00
54512;BME280;40419;47.438;19.026;2023-05-12T03:07:10;99914.81;;;10.49;100.00
54512;BME280;40419;47.438;19.026;2023-05-12T03:09:40;99907.25;;;10.37;100.00
54512;BME280;40419;47.438;19.026;2023-05-12T03:12:09;99912.28;;;10.47;100.00
54512;BME280;40419;47.438;19.026;2023-05-12T03:14:39;99911.41;;;10.40;100.00
54512;BME280;40419;47.438;19.026;2023-05-12T03:17:12;99911.50;;;10.53;100.00
54512;BME280;40419;47.438;19.026;2023-05-12T03:19:38;99915.28;;;10.59;100.00
54512;BME280;40419;47.438;19.026;2023-05-12T03:22:06;99903.50;;;10.38;100.00
54512;BME280;40419;47.438;19.026;2023-05-12T03:24:32;99909.78;;;10.39;100.00
54512;BME280;40419;47.438;19.026;2023-05-12T03:26:58;99915.94;;;10.68;100.00
54512;BME280;40419;47.438;19.026;2023-05-12T03:29:24;99900.06;;;10.58;100.00
54512;BME280;40419;47.438;19.026;2023-05-12T03:31:51;99906.53;;;10.57;100.00
54512;BME280;40419;47.438;19.026;2023-05-12T03:34:17;99916.28;;;10.51;100.00
54512;BME280;40419;47.438;19.026;2023-05-12T03:36:45;99913.53;;;10.44;100.00
54512;BME280;40419;47.438;19.026;2023-05-12T03:39:11;99914.84;;;10.55;100.00
54512;BME280;40419;47.438;19.026;2023-05-12T03:41:39;99912.06;;;10.42;100.00
54512;BME280;40419;47.438;19.026;2023-05-12T03:44:05;99916.03;;;10.46;100.00
54512;BME280;40419;47.438;19.026;2023-05-12T03:46:33;99924.63;;;10.56;100.00
54512;BME280;40419;47.438;19.026;2023-05-12T03:49:03;99913.38;;;10.53;100.00
54512;BME280;40419;47.438;19.026;2023-05-12T03:51:30;99919.59;;;10.53;100.00
54512;BME280;40419;47.438;19.026;2023-05-12T03:53:55;99921.81;;;10.36;100.00
54512;BME280;40419;47.438;19.026;2023-05-12T03:56:21;99920.34;;;10.34;100.00
54512;BME280;40419;47.438;19.026;2023-05-12T03:58:47;99911.88;;;10.43;100.00
54512;BME280;40419;47.438;19.026;2023-05-12T04:01:14;99918.66;;;10.33;100.00
54512;BME280;40419;47.438;19.026;2023-05-12T04:03:40;99921.41;;;10.39;100.00
54512;BME280;40419;47.438;19.026;2023-05-12T04:06:07;99921.03;;;10.49;100.00
54512;BME280;40419;47.438;19.026;2023-05-12T04:08:33;99928.50;;;10.40;100.00
54512;BME280;40419;47.438;19.026;2023-05-12T04:11:00;99928.53;;;10.47;100.00
54512;BME280;40419;47.438;19.026;2023-05-12T04:13:31;99927.25;;;10.36;100.00
54512;BME280;40419;47.438;19.026;2023-05-12T04:16:00;99925.50;;;10.28;100.00
54512;BME280;40419;47.438;19.026;2023-05-12T04:18:28;99935.56;;;10.41;100.00
54512;BME280;40419;47.438;19.026;2023-05-12T04:20:58;99932.66;;;10.36;100.00
54512;BME280;40419;47.438;19.026;2023-05-12T04:23:24;99931.16;;;10.34;100.00
54512;BME280;40419;47.438;19.026;2023-05-12T04:25:54;99930.00;;;10.50;100.00
54512;BME280;40419;47.438;19.026;2023-05-12T04:28:20;99942.47;;;10.44;100.00
54512;BME280;40419;47.438;19.026;2023-05-12T04:30:46;99946.28;;;10.56;100.00
54512;BME280;40419;47.438;19.026;2023-05-12T04:33:14;99944.56;;;10.49;100.00
54512;BME280;40419;47.438;19.026;2023-05-12T04:35:42;99932.75;;;10.56;100.00
54512;BME280;40419;47.438;19.026;2023-05-12T04:38:11;99942.75;;;10.62;100.00
54512;BME280;40419;47.438;19.026;2023-05-12T04:40:39;99934.56;;;10.49;100.00
54512;BME280;40419;47.438;19.026;2023-05-12T04:43:09;99934.78;;;10.48;100.00
54512;BME280;40419;47.438;19.026;2023-05-12T04:45:38;99929.56;;;10.46;100.00
54512;BME280;40419;47.438;19.026;2023-05-12T04:48:06;99937.72;;;10.53;100.00
54512;BME280;40419;47.438;19.026;2023-05-12T04:50:35;99934.44;;;10.57;100.00
54512;BME280;40419;47.438;19.026;2023-05-12T04:53:02;99934.50;;;10.71;100.00
54512;BME280;40419;47.438;19.026;2023-05-12T04:55:28;99947.97;;;10.64;100.00
54512;BME280;40419;47.438;19.026;2023-05-12T04:57:57;99939.22;;;10.55;100.00
54512;BME280;40419;47.438;19.026;2023-05-12T05:00:23;99939.28;;;10.75;100.00
54512;BME280;40419;47.438;19.026;2023-05-12T05:02:50;99937.00;;;10.79;100.00
54512;BME280;40419;47.438;19.026;2023-05-12T05:05:19;99944.88;;;10.67;100.00
54512;BME280;40419;47.438;19.026;2023-05-12T05:07:47;99939.09;;;10.84;100.00
54512;BME280;40419;47.438;19.026;2023-05-12T05:10:12;99942.97;;;10.61;100.00
54512;BME280;40419;47.438;19.026;2023-05-12T05:12:43;99945.94;;;10.73;100.00
54512;BME280;40419;47.438;19.026;2023-05-12T05:15:11;99944.66;;;10.69;100.00
54512;BME280;40419;47.438;19.026;2023-05-12T05:17:37;99949.63;;;10.58;100.00
54512;BME280;40419;47.438;19.026;2023-05-12T05:20:05;99943.63;;;10.63;100.00
54512;BME280;40419;47.438;19.026;2023-05-12T05:22:34;99953.03;;;10.74;100.00
54512;BME280;40419;47.438;19.026;2023-05-12T05:25:02;99950.09;;;10.69;100.00
54512;BME280;40419;47.438;19.026;2023-05-12T05:27:31;99939.97;;;10.91;100.00
54512;BME280;40419;47.438;19.026;2023-05-12T05:29:57;99944.44;;;10.63;100.00
54512;BME280;40419;47.438;19.026;2023-05-12T05:32:27;99945.59;;;10.82;100.00
54512;BME280;40419;47.438;19.026;2023-05-12T05:34:55;99950.94;;;10.69;100.00
54512;BME280;40419;47.438;19.026;2023-05-12T05:37:25;99950.69;;;10.64;100.00
54512;BME280;40419;47.438;19.026;2023-05-12T05:39:56;99952.09;;;10.53;100.00
54512;BME280;40419;47.438;19.026;2023-05-12T05:42:24;99945.06;;;10.66;100.00
54512;BME280;40419;47.438;19.026;2023-05-12T05:44:54;99956.91;;;10.58;100.00
54512;BME280;40419;47.438;19.026;2023-05-12T05:47:23;99959.91;;;10.76;100.00
54512;BME280;40419;47.438;19.026;2023-05-12T05:49:49;99961.16;;;10.74;100.00
54512;BME280;40419;47.438;19.026;2023-05-12T05:52:20;99961.91;;;10.61;100.00
54512;BME280;40419;47.438;19.026;2023-05-12T05:54:50;99958.91;;;10.84;100.00
54512;BME280;40419;47.438;19.026;2023-05-12T05:57:24;99964.28;;;10.77;100.00
54512;BME280;40419;47.438;19.026;2023-05-12T05:59:54;99964.41;;;11.11;100.00
54512;BME280;40419;47.438;19.026;2023-05-12T06:02:20;99965.38;;;10.83;100.00
54512;BME280;40419;47.438;19.026;2023-05-12T06:04:48;99967.47;;;10.94;100.00
54512;BME280;40419;47.438;19.026;2023-05-12T06:07:21;99963.47;;;10.77;100.00
54512;BME280;40419;47.438;19.026;2023-05-12T06:09:49;99970.19;;;10.88;100.00
54512;BME280;40419;47.438;19.026;2023-05-12T06:12:22;99972.41;;;10.77;100.00
54512;BME280;40419;47.438;19.026;2023-05-12T06:14:49;99969.97;;;10.89;100.00
54512;BME280;40419;47.438;19.026;2023-05-12T06:17:15;99963.47;;;10.84;100.00
54512;BME280;40419;47.438;19.026;2023-05-12T06:19:43;99977.00;;;10.77;100.00
54512;BME280;40419;47.438;19.026;2023-05-12T06:22:13;99970.91;;;10.61;100.00
54512;BME280;40419;47.438;19.026;2023-05-12T06:24:46;99976.59;;;10.80;100.00
54512;BME280;40419;47.438;19.026;2023-05-12T06:27:14;99968.28;;;10.81;100.00
54512;BME280;40419;47.438;19.026;2023-05-12T06:29:45;99971.06;;;11.02;100.00
54512;BME280;40419;47.438;19.026;2023-05-12T06:32:11;99971.66;;;10.97;100.00
54512;BME280;40419;47.438;19.026;2023-05-12T06:34:39;99974.91;;;10.79;100.00
54512;BME280;40419;47.438;19.026;2023-05-12T06:37:17;99970.97;;;10.81;100.00
54512;BME280;40419;47.438;19.026;2023-05-12T06:39:45;99966.91;;;11.12;100.00
54512;BME280;40419;47.438;19.026;2023-05-12T06:42:13;99973.06;;;10.79;100.00
54512;BME280;40419;47.438;19.026;2023-05-12T06:44:47;99969.78;;;10.91;100.00
54512;BME280;40419;47.438;19.026;2023-05-12T06:47:12;99962.66;;;10.83;100.00
54512;BME280;40419;47.438;19.026;2023-05-12T06:49:38;99958.72;;;10.86;100.00
54512;BME280;40419;47.438;19.026;2023-05-12T06:52:08;99968.34;;;10.95;100.00
54512;BME280;40419;47.438;19.026;2023-05-12T06:54:36;99971.72;;;11.04;100.00
54512;BME280;40419;47.438;19.026;2023-05-12T06:57:19;99963.16;;;11.07;100.00
54512;BME280;40419;47.438;19.026;2023-05-12T06:59:46;99962.06;;;10.88;100.00
54512;BME280;40419;47.438;19.026;2023-05-12T07:02:14;99965.38;;;10.83;100.00
54512;BME280;40419;47.438;19.026;2023-05-12T07:04:45;99967.06;;;10.97;100.00
54512;BME280;40419;47.438;19.026;2023-05-12T07:07:10;99970.25;;;11.08;100.00
54512;BME280;40419;47.438;19.026;2023-05-12T07:09:41;99966.28;;;11.04;100.00
54512;BME280;40419;47.438;19.026;2023-05-12T07:12:13;99970.50;;;11.20;100.00
54512;BME280;40419;47.438;19.026;2023-05-12T07:14:41;99967.16;;;11.17;100.00
54512;BME280;40419;47.438;19.026;2023-05-12T07:17:10;99969.28;;;11.35;100.00
54512;BME280;40419;47.438;19.026;2023-05-12T07:19:35;99966.09;;;11.12;100.00
54512;BME280;40419;47.438;19.026;2023-05-12T07:22:01;99967.59;;;11.34;100.00
54512;BME280;40419;47.438;19.026;2023-05-12T07:24:27;99964.41;;;11.11;100.00
54512;BME280;40419;47.438;19.026;2023-05-12T07:26:54;99974.22;;;11.18;100.00
54512;BME280;40419;47.438;19.026;2023-05-12T07:29:25;99957.19;;;11.31;100.00
54512;BME280;40419;47.438;19.026;2023-05-12T07:31:51;99970.31;;;11.34;100.00
54512;BME280;40419;47.438;19.026;2023-05-12T07:34:16;99967.16;;;11.24;100.00
54512;BME280;40419;47.438;19.026;2023-05-12T07:36:42;99967.56;;;11.21;100.00
54512;BME280;40419;47.438;19.026;2023-05-12T07:39:10;99958.47;;;11.49;100.00
54512;BME280;40419;47.438;19.026;2023-05-12T07:41:40;99968.44;;;11.28;100.00
54512;BME280;40419;47.438;19.026;2023-05-12T07:44:11;99963.88;;;11.35;100.00
54512;BME280;40419;47.438;19.026;2023-05-12T07:46:39;99972.22;;;11.54;100.00
54512;BME280;40419;47.438;19.026;2023-05-12T07:49:07;99969.75;;;11.73;100.00
54512;BME280;40419;47.438;19.026;2023-05-12T07:51:34;99970.63;;;11.93;100.00
54512;BME280;40419;47.438;19.026;2023-05-12T07:54:02;99961.84;;;11.78;100.00
54512;BME280;40419;47.438;19.026;2023-05-12T07:56:31;99969.13;;;11.84;100.00
54512;BME280;40419;47.438;19.026;2023-05-12T07:58:57;99965.78;;;11.82;100.00
54512;BME280;40419;47.438;19.026;2023-05-12T08:01:25;99970.56;;;11.86;100.00
54512;BME280;40419;47.438;19.026;2023-05-12T08:03:50;99968.72;;;11.87;100.00
54512;BME280;40419;47.438;19.026;2023-05-12T08:06:19;99973.72;;;11.90;100.00
54512;BME280;40419;47.438;19.026;2023-05-12T08:08:44;99976.22;;;11.72;100.00
54512;BME280;40419;47.438;19.026;2023-05-12T08:11:15;99971.22;;;11.88;100.00
54512;BME280;40419;47.438;19.026;2023-05-12T08:13:48;99980.63;;;11.79;100.00
54512;BME280;40419;47.438;19.026;2023-05-12T08:16:13;99975.59;;;11.89;100.00
54512;BME280;40419;47.438;19.026;2023-05-12T08:18:44;99986.06;;;11.93;100.00
54512;BME280;40419;47.438;19.026;2023-05-12T08:21:12;99989.78;;;11.78;100.00
54512;BME280;40419;47.438;19.026;2023-05-12T08:23:37;99993.97;;;12.08;100.00
54512;BME280;40419;47.438;19.026;2023-05-12T08:26:05;99990.03;;;12.03;100.00
54512;BME280;40419;47.438;19.026;2023-05-12T08:28:33;99980.00;;;12.17;100.00
54512;BME280;40419;47.438;19.026;2023-05-12T08:31:03;99985.63;;;12.22;100.00
54512;BME280;40419;47.438;19.026;2023-05-12T08:33:29;99985.22;;;12.05;100.00
54512;BME280;40419;47.438;19.026;2023-05-12T08:35:57;99990.22;;;12.09;100.00
54512;BME280;40419;47.438;19.026;2023-05-12T08:38:27;99989.38;;;12.28;100.00
54512;BME280;40419;47.438;19.026;2023-05-12T08:43:43;99988.13;;;12.24;100.00
54512;BME280;40419;47.438;19.026;2023-05-12T08:46:11;99986.44;;;12.36;100.00
54512;BME280;40419;47.438;19.026;2023-05-12T08:48:38;100000.47;;;12.00;100.00
54512;BME280;40419;47.438;19.026;2023-05-12T08:51:08;99995.63;;;12.29;100.00
54512;BME280;40419;47.438;19.026;2023-05-12T08:53:40;99989.41;;;12.08;100.00
54512;BME280;40419;47.438;19.026;2023-05-12T08:56:09;99997.34;;;12.10;100.00
54512;BME280;40419;47.438;19.026;2023-05-12T08:58:40;99991.28;;;11.94;100.00
54512;BME280;40419;47.438;19.026;2023-05-12T09:01:10;99993.34;;;12.32;100.00
54512;BME280;40419;47.438;19.026;2023-05-12T09:03:38;99999.22;;;12.16;100.00
54512;BME280;40419;47.438;19.026;2023-05-12T09:06:05;99997.53;;;12.28;100.00
54512;BME280;40419;47.438;19.026;2023-05-12T09:08:31;100013.81;;;12.01;100.00
54512;BME280;40419;47.438;19.026;2023-05-12T09:10:58;100016.53;;;12.21;100.00
54512;BME280;40419;47.438;19.026;2023-05-12T09:16:22;100017.81;;;11.99;100.00
54512;BME280;40419;47.438;19.026;2023-05-12T09:18:54;100015.44;;;11.89;100.00
54512;BME280;40419;47.438;19.026;2023-05-12T09:21:24;100020.28;;;11.94;100.00
54512;BME280;40419;47.438;19.026;2023-05-12T09:26:25;100023.22;;;12.05;100.00
54512;BME280;40419;47.438;19.026;2023-05-12T09:28:54;100017.34;;;11.88;100.00
54512;BME280;40419;47.438;19.026;2023-05-12T09:31:22;100021.28;;;11.86;100.00
54512;BME280;40419;47.438;19.026;2023-05-12T09:33:48;100039.66;;;11.84;100.00
54512;BME280;40419;47.438;19.026;2023-05-12T09:36:25;100047.34;;;11.60;100.00
54512;BME280;40419;47.438;19.026;2023-05-12T09:41:37;100031.53;;;11.84;100.00
54512;BME280;40419;47.438;19.026;2023-05-12T09:44:06;100038.59;;;11.65;100.00
54512;BME280;40419;47.438;19.026;2023-05-12T09:46:36;100036.06;;;11.63;100.00
54512;BME280;40419;47.438;19.026;2023-05-12T09:49:05;100034.00;;;11.79;100.00
54512;BME280;40419;47.438;19.026;2023-05-12T09:51:32;100043.31;;;11.43;100.00
54512;BME280;40419;47.438;19.026;2023-05-12T09:53:58;100038.28;;;11.33;100.00
54512;BME280;40419;47.438;19.026;2023-05-12T09:56:28;100041.88;;;11.40;100.00
54512;BME280;40419;47.438;19.026;2023-05-12T09:59:05;100039.38;;;11.45;100.00
54512;BME280;40419;47.438;19.026;2023-05-12T10:01:35;100039.94;;;11.21;100.00
54512;BME280;40419;47.438;19.026;2023-05-12T10:04:06;100038.50;;;11.25;100.00
54512;BME280;40419;47.438;19.026;2023-05-12T10:06:40;100033.31;;;10.88;100.00
54512;BME280;40419;47.438;19.026;2023-05-12T10:09:15;100028.41;;;11.05;100.00
54512;BME280;40419;47.438;19.026;2023-05-12T10:11:46;100027.47;;;10.85;100.00
54512;BME280;40419;47.438;19.026;2023-05-12T10:14:15;100030.69;;;10.67;100.00
54512;BME280;40419;47.438;19.026;2023-05-12T10:16:46;100023.78;;;10.57;100.00
54512;BME280;40419;47.438;19.026;2023-05-12T10:19:14;100030.69;;;10.67;100.00
54512;BME280;40419;47.438;19.026;2023-05-12T10:21:47;100024.06;;;10.69;100.00
54512;BME280;40419;47.438;19.026;2023-05-12T10:24:14;100020.66;;;10.60;100.00
54512;BME280;40419;47.438;19.026;2023-05-12T10:26:43;100026.06;;;10.54;100.00
54512;BME280;40419;47.438;19.026;2023-05-12T10:29:09;100020.94;;;10.72;100.00
54512;BME280;40419;47.438;19.026;2023-05-12T10:31:37;100026.56;;;10.71;100.00
54512;BME280;40419;47.438;19.026;2023-05-12T10:34:05;100033.19;;;10.61;100.00
54512;BME280;40419;47.438;19.026;2023-05-12T10:36:45;100036.91;;;10.60;100.00
54512;BME280;40419;47.438;19.026;2023-05-12T10:39:12;100041.63;;;10.52;100.00
54512;BME280;40419;47.438;19.026;2023-05-12T10:41:42;100035.22;;;10.59;100.00
54512;BME280;40419;47.438;19.026;2023-05-12T10:44:15;100032.84;;;10.78;100.00
54512;BME280;40419;47.438;19.026;2023-05-12T10:46:58;100032.69;;;10.86;100.00
54512;BME280;40419;47.438;19.026;2023-05-12T10:49:31;100033.06;;;10.83;100.00
54512;BME280;40419;47.438;19.026;2023-05-12T10:52:01;100048.44;;;10.76;100.00
54512;BME280;40419;47.438;19.026;2023-05-12T10:54:28;100046.53;;;10.70;100.00
54512;BME280;40419;47.438;19.026;2023-05-12T10:56:59;100047.81;;;10.74;100.00
54512;BME280;40419;47.438;19.026;2023-05-12T10:59:26;100040.59;;;10.81;100.00
54512;BME280;40419;47.438;19.026;2023-05-12T11:02:04;100043.28;;;10.81;100.00
54512;BME280;40419;47.438;19.026;2023-05-12T11:04:37;100040.97;;;10.78;100.00
54512;BME280;40419;47.438;19.026;2023-05-12T11:07:05;100037.19;;;10.72;100.00
54512;BME280;40419;47.438;19.026;2023-05-12T11:09:37;100047.34;;;10.63;100.00
54512;BME280;40419;47.438;19.026;2023-05-12T11:12:05;100041.31;;;10.68;100.00
54512;BME280;40419;47.438;19.026;2023-05-12T11:14:38;100041.13;;;10.70;100.00
54512;BME280;40419;47.438;19.026;2023-05-12T11:17:06;100037.91;;;10.53;100.00
54512;BME280;40419;47.438;19.026;2023-05-12T11:19:36;100043.91;;;10.48;100.00
54512;BME280;40419;47.438;19.026;2023-05-12T11:24:35;100039.59;;;10.54;100.00
54512;BME280;40419;47.438;19.026;2023-05-12T11:27:10;100042.28;;;10.54;100.00
54512;BME280;40419;47.438;19.026;2023-05-12T11:29:36;100040.13;;;10.77;100.00
54512;BME280;40419;47.438;19.026;2023-05-12T11:32:07;100040.59;;;10.81;100.00
54512;BME280;40419;47.438;19.026;2023-05-12T11:34:36;100047.97;;;11.01;100.00
54512;BME280;40419;47.438;19.026;2023-05-12T11:37:11;100035.50;;;10.71;100.00
54512;BME280;40419;47.438;19.026;2023-05-12T11:39:37;100036.94;;;10.67;100.00
54512;BME280;40419;47.438;19.026;2023-05-12T11:42:06;100036.38;;;10.78;100.00
54512;BME280;40419;47.438;19.026;2023-05-12T11:44:34;100044.47;;;10.72;100.00
54512;BME280;40419;47.438;19.026;2023-05-12T11:47:11;100039.78;;;10.94;100.00
54512;BME280;40419;47.438;19.026;2023-05-12T11:49:50;100037.00;;;10.80;100.00
54512;BME280;40419;47.438;19.026;2023-05-12T11:52:20;100038.44;;;10.76;100.00
54512;BME280;40419;47.438;19.026;2023-05-12T11:54:49;100032.91;;;10.91;100.00
54512;BME280;40419;47.438;19.026;2023-05-12T11:57:29;100035.81;;;10.90;100.00
54512;BME280;40419;47.438;19.026;2023-05-12T12:00:14;100038.31;;;10.91;100.00
54512;BME280;40419;47.438;19.026;2023-05-12T12:02:39;100032.47;;;10.88;100.00
54512;BME280;40419;47.438;19.026;2023-05-12T12:05:18;100041.88;;;10.92;100.00
54512;BME280;40419;47.438;19.026;2023-05-12T12:07:47;100032.91;;;10.91;100.00
54512;BME280;40419;47.438;19.026;2023-05-12T12:10:18;100045.63;;;10.97;100.00
54512;BME280;40419;47.438;19.026;2023-05-12T12:12:46;100040.41;;;10.96;100.00
54512;BME280;40419;47.438;19.026;2023-05-12T12:15:12;100050.09;;;11.12;100.00
54512;BME280;40419;47.438;19.026;2023-05-12T12:17:42;100046.09;;;11.01;100.00
54512;BME280;40419;47.438;19.026;2023-05-12T12:20:08;100045.59;;;10.84;100.00
54512;BME280;40419;47.438;19.026;2023-05-12T12:22:39;100047.16;;;11.07;100.00
54512;BME280;40419;47.438;19.026;2023-05-12T12:25:05;100041.47;;;10.95;100.00
54512;BME280;40419;47.438;19.026;2023-05-12T12:27:30;100049.13;;;10.85;100.00
54512;BME280;40419;47.438;19.026;2023-05-12T12:29:56;100055.28;;;10.72;100.00
54512;BME280;40419;47.438;19.026;2023-05-12T12:32:24;100055.16;;;10.87;100.00
54512;BME280;40419;47.438;19.026;2023-05-12T12:34:54;100059.69;;;10.73;100.00
54512;BME280;40419;47.438;19.026;2023-05-12T12:37:24;100058.25;;;10.77;100.00
54512;BME280;40419;47.438;19.026;2023-05-12T12:39:49;100059.88;;;10.71;100.00
54512;BME280;40419;47.438;19.026;2023-05-12T12:42:15;100058.16;;;10.63;100.00
54512;BME280;40419;47.438;19.026;2023-05-12T12:44:43;100059.06;;;10.71;100.00
54512;BME280;40419;47.438;19.026;2023-05-12T12:47:10;100055.69;;;10.69;100.00
54512;BME280;40419;47.438;19.026;2023-05-12T12:49:35;100062.25;;;10.81;100.00
54512;BME280;40419;47.438;19.026;2023-05-12T12:52:01;100058.00;;;10.72;100.00
54512;BME280;40419;47.438;19.026;2023-05-12T12:54:32;100052.13;;;10.61;100.00
54512;BME280;40419;47.438;19.026;2023-05-12T12:57:00;100052.56;;;10.65;100.00
54512;BME280;40419;47.438;19.026;2023-05-12T12:59:25;100057.66;;;10.81;100.00
54512;BME280;40419;47.438;19.026;2023-05-12T13:01:51;100053.47;;;10.79;100.00